sensor_id;sensor_type;location;lat;lon;timestamp;temperature;humidity
1994;DHT22;998;49.906;10.908;2023-02-28T00:01:28;1.10;99.90
1994;DHT22;998;49.906;10.908;2023-02-28T00:03:56;1.00;99.90
1994;DHT22;998;49.906;10.908;2023-02-28T00:06:23;1.00;99.90
1994;DHT22;998;49.906;10.908;2023-02-28T00:08:51;1.10;99.90
1994;DHT22;998;49.906;10.908;2023-02-28T00:11:18;1.00;99.90
1994;DHT22;998;49.906;10.908;2023-02-28T00:13:47;1.00;99.90
1994;DHT22;998;49.906;10.908;2023-02-28T00:16:17;1.00;99.90
1994;DHT22;998;49.906;10.908;2023-02-28T00:18:45;1.00;99.90
1994;DHT22;998;49.906;10.908;2023-02-28T00:21:13;1.00;99.90
1994;DHT22;998;49.906;10.908;2023-02-28T00:23:41;1.00;99.90
1994;DHT22;998;49.906;10.908;2023-02-28T00:26:09;0.90;99.90
1994;DHT22;998;49.906;10.908;2023-02-28T00:28:37;0.90;99.90
1994;DHT22;998;49.906;10.908;2023-02-28T00:31:04;0.80;99.90
1994;DHT22;998;49.906;10.908;2023-02-28T00:33:33;0.70;99.90
1994;DHT22;998;49.906;10.908;2023-02-28T00:36:05;0.70;99.90
1994;DHT22;998;49.906;10.908;2023-02-28T00:38:33;0.60;99.90
1994;DHT22;998;49.906;10.908;2023-02-28T00:41:01;0.60;99.90
1994;DHT22;998;49.906;10.908;2023-02-28T00:43:32;0.70;99.90
1994;DHT22;998;49.906;10.908;2023-02-28T00:45:59;0.70;99.90
1994;DHT22;998;49.906;10.908;2023-02-28T00:48:26;0.70;99.90
1994;DHT22;998;49.906;10.908;2023-02-28T00:50:55;0.60;99.90
1994;DHT22;998;49.906;10.908;2023-02-28T00:53:23;0.70;99.90
1994;DHT22;998;49.906;10.908;2023-02-28T00:55:50;0.60;99.90
1994;DHT22;998;49.906;10.908;2023-02-28T00:58:18;0.60;99.90
1994;DHT22;998;49.906;10.908;2023-02-28T01:00:45;0.60;99.90
1994;DHT22;998;49.906;10.908;2023-02-28T01:03:15;0.60;99.90
1994;DHT22;998;49.906;10.908;2023-02-28T01:05:42;0.70;99.90
1994;DHT22;998;49.906;10.908;2023-02-28T01:08:11;0.60;99.90
1994;DHT22;998;49.906;10.908;2023-02-28T01:10:39;0.60;99.90
1994;DHT22;998;49.906;10.908;2023-02-28T01:13:07;0.60;99.90
1994;DHT22;998;49.906;10.908;2023-02-28T01:15:34;0.70;99.90
1994;DHT22;998;49.906;10.908;2023-02-28T01:18:02;0.60;99.90
1994;DHT22;998;49.906;10.908;2023-02-28T01:20:29;0.50;99.90
1994;DHT22;998;49.906;10.908;2023-02-28T01:22:57;0.60;99.90
1994;DHT22;998;49.906;10.908;2023-02-28T01:25:26;0.60;99.90
1994;DHT22;998;49.906;10.908;2023-02-28T01:27:53;0.60;99.90
1994;DHT22;998;49.906;10.908;2023-02-28T01:30:20;0.60;99.90
1994;DHT22;998;49.906;10.908;2023-02-28T01:32:47;0.60;99.90
1994;DHT22;998;49.906;10.908;2023-02-28T01:35:17;0.60;99.90
1994;DHT22;998;49.906;10.908;2023-02-28T01:37:44;0.60;99.90
1994;DHT22;998;49.906;10.908;2023-02-28T01:40:13;0.60;99.90
1994;DHT22;998;49.906;10.908;2023-02-28T01:42:41;0.60;99.90
1994;DHT22;998;49.906;10.908;2023-02-28T01:45:20;0.60;99.90
1994;DHT22;998;49.906;10.908;2023-02-28T01:47:50;0.60;99.90
1994;DHT22;998;49.906;10.908;2023-02-28T01:50:21;0.50;99.90
1994;DHT22;998;49.906;10.908;2023-02-28T01:52:50;0.50;99.90
1994;DHT22;998;49.906;10.908;2023-02-28T01:55:19;0.60;99.90
1994;DHT22;998;49.906;10.908;2023-02-28T01:57:52;0.50;99.90
1994;DHT22;998;49.906;10.908;2023-02-28T02:00:24;0.50;99.90
1994;DHT22;998;49.906;10.908;2023-02-28T02:02:58;0.60;99.90
1994;DHT22;998;49.906;10.908;2023-02-28T02:05:28;0.60;99.90
1994;DHT22;998;49.906;10.908;2023-02-28T02:08:01;0.60;99.90
1994;DHT22;998;49.906;10.908;2023-02-28T02:10:33;0.60;99.90
1994;DHT22;998;49.906;10.908;2023-02-28T02:13:25;0.60;99.90
1994;DHT22;998;49.906;10.908;2023-02-28T02:16:20;0.40;99.90
1994;DHT22;998;49.906;10.908;2023-02-28T02:18:53;0.40;99.90
1994;DHT22;998;49.906;10.908;2023-02-28T02:22:18;0.30;99.90
1994;DHT22;998;49.906;10.908;2023-02-28T02:25:08;0.30;99.90
1994;DHT22;998;49.906;10.908;2023-02-28T02:31:09;0.40;99.90
1994;DHT22;998;49.906;10.908;2023-02-28T02:34:11;0.40;99.90
1994;DHT22;998;49.906;10.908;2023-02-28T02:36:49;0.30;99.90
1994;DHT22;998;49.906;10.908;2023-02-28T02:39:22;0.20;99.90
1994;DHT22;998;49.906;10.908;2023-02-28T02:41:54;0.00;99.90
1994;DHT22;998;49.906;10.908;2023-02-28T02:44:25;0.00;99.90
1994;DHT22;998;49.906;10.908;2023-02-28T02:46:58;0.00;99.90
1994;DHT22;998;49.906;10.908;2023-02-28T02:49:30;-0.10;99.90
1994;DHT22;998;49.906;10.908;2023-02-28T02:52:03;-0.10;99.90
1994;DHT22;998;49.906;10.908;2023-02-28T02:54:34;-0.10;99.90
1994;DHT22;998;49.906;10.908;2023-02-28T02:57:05;0.00;99.90
1994;DHT22;998;49.906;10.908;2023-02-28T02:59:35;-0.10;99.90
1994;DHT22;998;49.906;10.908;2023-02-28T03:02:07;-0.10;99.90
1994;DHT22;998;49.906;10.908;2023-02-28T03:04:40;-0.10;99.90
1994;DHT22;998;49.906;10.908;2023-02-28T03:07:09;-0.10;99.90
1994;DHT22;998;49.906;10.908;2023-02-28T03:09:36;-0.10;99.90
1994;DHT22;998;49.906;10.908;2023-02-28T03:12:09;-0.20;99.90
1994;DHT22;998;49.906;10.908;2023-02-28T03:14:53;-0.10;99.90
1994;DHT22;998;49.906;10.908;2023-02-28T03:17:53;-0.10;99.90
1994;DHT22;998;49.906;10.908;2023-02-28T03:20:36;-0.20;99.90
1994;DHT22;998;49.906;10.908;2023-02-28T03:23:13;-0.20;99.90
1994;DHT22;998;49.906;10.908;2023-02-28T03:25:52;-0.20;99.90
1994;DHT22;998;49.906;10.908;2023-02-28T03:28:30;-0.30;99.90
1994;DHT22;998;49.906;10.908;2023-02-28T03:31:03;-0.30;99.90
1994;DHT22;998;49.906;10.908;2023-02-28T03:33:38;-0.30;99.90
1994;DHT22;998;49.906;10.908;2023-02-28T03:36:10;-0.30;99.90
1994;DHT22;998;49.906;10.908;2023-02-28T03:38:44;-0.20;99.90
1994;DHT22;998;49.906;10.908;2023-02-28T03:41:15;-0.30;99.90
1994;DHT22;998;49.906;10.908;2023-02-28T03:43:49;-0.20;99.90
1994;DHT22;998;49.906;10.908;2023-02-28T03:46:21;-0.20;99.90
1994;DHT22;998;49.906;10.908;2023-02-28T03:48:54;-0.30;99.90
1994;DHT22;998;49.906;10.908;2023-02-28T03:51:25;-0.20;99.90
1994;DHT22;998;49.906;10.908;2023-02-28T03:53:57;-0.10;99.90
1994;DHT22;998;49.906;10.908;2023-02-28T03:56:33;-0.20;99.90
1994;DHT22;998;49.906;10.908;2023-02-28T03:59:06;-0.20;99.90
1994;DHT22;998;49.906;10.908;2023-02-28T04:01:37;-0.10;99.90
1994;DHT22;998;49.906;10.908;2023-02-28T04:04:07;-0.10;99.90
1994;DHT22;998;49.906;10.908;2023-02-28T04:06:36;-0.10;99.90
1994;DHT22;998;49.906;10.908;2023-02-28T04:09:04;-0.10;99.90
1994;DHT22;998;49.906;10.908;2023-02-28T04:11:34;-0.10;99.90
1994;DHT22;998;49.906;10.908;2023-02-28T04:14:02;0.00;99.90
1994;DHT22;998;49.906;10.908;2023-02-28T04:16:30;-0.10;99.90
1994;DHT22;998;49.906;10.908;2023-02-28T04:18:58;0.00;99.90
1994;DHT22;998;49.906;10.908;2023-02-28T04:21:29;0.00;99.90
1994;DHT22;998;49.906;10.908;2023-02-28T04:23:58;0.00;99.90
1994;DHT22;998;49.906;10.908;2023-02-28T04:26:28;0.00;99.90
1994;DHT22;998;49.906;10.908;2023-02-28T04:28:56;0.00;99.90
1994;DHT22;998;49.906;10.908;2023-02-28T04:31:24;0.00;99.90
1994;DHT22;998;49.906;10.908;2023-02-28T04:33:51;0.00;99.90
1994;DHT22;998;49.906;10.908;2023-02-28T04:36:19;-0.10;99.90
1994;DHT22;998;49.906;10.908;2023-02-28T04:38:46;-0.10;99.90
1994;DHT22;998;49.906;10.908;2023-02-28T04:41:15;0.00;99.90
1994;DHT22;998;49.906;10.908;2023-02-28T04:43:43;0.00;99.90
1994;DHT22;998;49.906;10.908;2023-02-28T04:46:10;0.00;99.90
1994;DHT22;998;49.906;10.908;2023-02-28T04:48:39;-0.10;99.90
1994;DHT22;998;49.906;10.908;2023-02-28T04:51:08;-0.10;99.90
1994;DHT22;998;49.906;10.908;2023-02-28T04:53:36;-0.10;99.90
1994;DHT22;998;49.906;10.908;2023-02-28T04:56:04;-0.10;99.90
1994;DHT22;998;49.906;10.908;2023-02-28T04:58:34;-0.20;99.90
1994;DHT22;998;49.906;10.908;2023-02-28T05:01:03;-0.10;99.90
1994;DHT22;998;49.906;10.908;2023-02-28T05:03:38;-0.20;99.90
1994;DHT22;998;49.906;10.908;2023-02-28T05:06:07;-0.30;99.90
1994;DHT22;998;49.906;10.908;2023-02-28T05:08:34;-0.20;99.90
1994;DHT22;998;49.906;10.908;2023-02-28T05:11:02;-0.20;99.90
1994;DHT22;998;49.906;10.908;2023-02-28T05:13:30;-0.30;99.90
1994;DHT22;998;49.906;10.908;2023-02-28T05:15:58;-0.30;99.90
1994;DHT22;998;49.906;10.908;2023-02-28T05:18:26;-0.30;99.90
1994;DHT22;998;49.906;10.908;2023-02-28T05:20:54;-0.40;99.90
1994;DHT22;998;49.906;10.908;2023-02-28T05:23:22;-0.40;99.90
1994;DHT22;998;49.906;10.908;2023-02-28T05:25:50;-0.40;99.90
1994;DHT22;998;49.906;10.908;2023-02-28T05:28:17;-0.30;99.90
1994;DHT22;998;49.906;10.908;2023-02-28T05:30:45;-0.30;99.90
1994;DHT22;998;49.906;10.908;2023-02-28T05:33:14;-0.20;99.90
1994;DHT22;998;49.906;10.908;2023-02-28T05:35:42;-0.20;99.90
1994;DHT22;998;49.906;10.908;2023-02-28T05:38:09;-0.20;99.90
1994;DHT22;998;49.906;10.908;2023-02-28T05:40:38;-0.20;99.90
1994;DHT22;998;49.906;10.908;2023-02-28T05:43:07;-0.20;99.90
1994;DHT22;998;49.906;10.908;2023-02-28T05:45:35;-0.20;99.90
1994;DHT22;998;49.906;10.908;2023-02-28T05:48:03;-0.20;99.90
1994;DHT22;998;49.906;10.908;2023-02-28T05:50:32;-0.20;99.90
1994;DHT22;998;49.906;10.908;2023-02-28T05:52:59;-0.20;99.90
1994;DHT22;998;49.906;10.908;2023-02-28T05:55:27;-0.20;99.90
1994;DHT22;998;49.906;10.908;2023-02-28T05:57:54;-0.10;99.90
1994;DHT22;998;49.906;10.908;2023-02-28T06:00:22;-0.10;99.90
1994;DHT22;998;49.906;10.908;2023-02-28T06:02:49;-0.10;99.90
1994;DHT22;998;49.906;10.908;2023-02-28T06:05:19;-0.10;99.90
1994;DHT22;998;49.906;10.908;2023-02-28T06:07:47;-0.10;99.90
1994;DHT22;998;49.906;10.908;2023-02-28T06:10:15;-0.10;99.90
1994;DHT22;998;49.906;10.908;2023-02-28T06:12:42;-0.20;99.90
1994;DHT22;998;49.906;10.908;2023-02-28T06:15:12;-0.20;99.90
1994;DHT22;998;49.906;10.908;2023-02-28T06:17:40;-0.30;99.90
1994;DHT22;998;49.906;10.908;2023-02-28T06:20:09;-0.20;99.90
1994;DHT22;998;49.906;10.908;2023-02-28T06:22:39;-0.20;99.90
1994;DHT22;998;49.906;10.908;2023-02-28T06:25:08;-0.20;99.90
1994;DHT22;998;49.906;10.908;2023-02-28T06:27:36;-0.20;99.90
1994;DHT22;998;49.906;10.908;2023-02-28T06:30:05;-0.20;99.90
1994;DHT22;998;49.906;10.908;2023-02-28T06:32:32;-0.20;99.90
1994;DHT22;998;49.906;10.908;2023-02-28T06:35:00;-0.30;99.90
1994;DHT22;998;49.906;10.908;2023-02-28T06:37:27;-0.20;99.90
1994;DHT22;998;49.906;10.908;2023-02-28T06:39:54;-0.20;99.90
1994;DHT22;998;49.906;10.908;2023-02-28T06:42:24;-0.10;99.90
1994;DHT22;998;49.906;10.908;2023-02-28T06:44:54;-0.10;99.90
1994;DHT22;998;49.906;10.908;2023-02-28T06:47:22;0.00;99.90
1994;DHT22;998;49.906;10.908;2023-02-28T06:49:50;0.00;99.90
1994;DHT22;998;49.906;10.908;2023-02-28T06:52:17;0.10;99.90
1994;DHT22;998;49.906;10.908;2023-02-28T06:54:45;0.10;99.90
1994;DHT22;998;49.906;10.908;2023-02-28T06:57:12;0.10;99.90
1994;DHT22;998;49.906;10.908;2023-02-28T06:59:41;0.10;99.90
1994;DHT22;998;49.906;10.908;2023-02-28T07:02:08;0.20;99.90
1994;DHT22;998;49.906;10.908;2023-02-28T07:04:36;0.20;99.90
1994;DHT22;998;49.906;10.908;2023-02-28T07:07:06;0.20;99.90
1994;DHT22;998;49.906;10.908;2023-02-28T07:09:33;0.20;99.90
1994;DHT22;998;49.906;10.908;2023-02-28T07:12:01;0.20;99.90
1994;DHT22;998;49.906;10.908;2023-02-28T07:14:28;0.30;99.90
1994;DHT22;998;49.906;10.908;2023-02-28T07:16:57;0.30;99.90
1994;DHT22;998;49.906;10.908;2023-02-28T07:19:24;0.30;99.90
1994;DHT22;998;49.906;10.908;2023-02-28T07:21:52;0.30;99.90
1994;DHT22;998;49.906;10.908;2023-02-28T07:24:19;0.30;99.90
1994;DHT22;998;49.906;10.908;2023-02-28T07:26:49;0.30;99.90
1994;DHT22;998;49.906;10.908;2023-02-28T07:29:16;0.30;99.90
1994;DHT22;998;49.906;10.908;2023-02-28T07:31:44;0.30;99.90
1994;DHT22;998;49.906;10.908;2023-02-28T07:34:13;0.40;99.90
1994;DHT22;998;49.906;10.908;2023-02-28T07:36:41;0.40;99.90
1994;DHT22;998;49.906;10.908;2023-02-28T07:39:08;0.40;99.90
1994;DHT22;998;49.906;10.908;2023-02-28T07:41:36;0.40;99.90
1994;DHT22;998;49.906;10.908;2023-02-28T07:44:09;0.40;99.90
1994;DHT22;998;49.906;10.908;2023-02-28T07:46:36;0.50;99.90
1994;DHT22;998;49.906;10.908;2023-02-28T07:49:04;0.50;99.90
1994;DHT22;998;49.906;10.908;2023-02-28T07:51:34;0.50;99.90
1994;DHT22;998;49.906;10.908;2023-02-28T07:54:01;0.60;99.90
1994;DHT22;998;49.906;10.908;2023-02-28T07:56:29;0.60;99.90
1994;DHT22;998;49.906;10.908;2023-02-28T07:58:56;0.60;99.90
1994;DHT22;998;49.906;10.908;2023-02-28T08:01:24;0.70;99.90
1994;DHT22;998;49.906;10.908;2023-02-28T08:03:51;0.70;99.90
1994;DHT22;998;49.906;10.908;2023-02-28T08:06:22;0.70;99.90
1994;DHT22;998;49.906;10.908;2023-02-28T08:08:51;0.80;99.90
1994;DHT22;998;49.906;10.908;2023-02-28T08:11:19;0.90;99.90
1994;DHT22;998;49.906;10.908;2023-02-28T08:13:47;0.90;99.90
1994;DHT22;998;49.906;10.908;2023-02-28T08:16:14;0.90;99.90
1994;DHT22;998;49.906;10.908;2023-02-28T08:18:47;0.90;99.90
1994;DHT22;998;49.906;10.908;2023-02-28T08:21:14;1.00;99.90
1994;DHT22;998;49.906;10.908;2023-02-28T08:23:41;1.00;99.90
1994;DHT22;998;49.906;10.908;2023-02-28T08:26:10;1.10;99.90
1994;DHT22;998;49.906;10.908;2023-02-28T08:28:37;1.20;99.90
1994;DHT22;998;49.906;10.908;2023-02-28T08:31:09;1.20;99.90
1994;DHT22;998;49.906;10.908;2023-02-28T08:33:37;1.20;99.90
1994;DHT22;998;49.906;10.908;2023-02-28T08:36:05;1.30;99.90
1994;DHT22;998;49.906;10.908;2023-02-28T08:38:33;1.40;99.90
1994;DHT22;998;49.906;10.908;2023-02-28T08:41:02;1.40;99.90
1994;DHT22;998;49.906;10.908;2023-02-28T08:43:33;1.40;99.90
1994;DHT22;998;49.906;10.908;2023-02-28T08:46:00;1.50;99.90
1994;DHT22;998;49.906;10.908;2023-02-28T08:48:28;1.50;99.90
1994;DHT22;998;49.906;10.908;2023-02-28T08:50:57;1.50;99.90
1994;DHT22;998;49.906;10.908;2023-02-28T08:53:24;1.60;99.90
1994;DHT22;998;49.906;10.908;2023-02-28T08:55:58;1.70;99.90
1994;DHT22;998;49.906;10.908;2023-02-28T08:58:25;1.70;99.90
1994;DHT22;998;49.906;10.908;2023-02-28T09:00:55;1.70;99.90
1994;DHT22;998;49.906;10.908;2023-02-28T09:03:23;1.90;99.90
1994;DHT22;998;49.906;10.908;2023-02-28T09:05:54;1.90;99.90
1994;DHT22;998;49.906;10.908;2023-02-28T09:08:22;1.90;99.90
1994;DHT22;998;49.906;10.908;2023-02-28T09:10:51;1.90;99.90
1994;DHT22;998;49.906;10.908;2023-02-28T09:13:22;1.80;99.90
1994;DHT22;998;49.906;10.908;2023-02-28T09:15:49;1.70;99.90
1994;DHT22;998;49.906;10.908;2023-02-28T09:18:17;1.70;99.90
1994;DHT22;998;49.906;10.908;2023-02-28T09:20:44;1.70;99.90
1994;DHT22;998;49.906;10.908;2023-02-28T09:23:12;1.80;99.90
1994;DHT22;998;49.906;10.908;2023-02-28T09:25:45;1.80;99.90
1994;DHT22;998;49.906;10.908;2023-02-28T09:28:12;1.80;99.90
1994;DHT22;998;49.906;10.908;2023-02-28T09:30:41;1.90;99.90
1994;DHT22;998;49.906;10.908;2023-02-28T09:33:08;1.90;99.90
1994;DHT22;998;49.906;10.908;2023-02-28T09:35:37;2.00;99.90
1994;DHT22;998;49.906;10.908;2023-02-28T09:38:04;2.00;99.90
1994;DHT22;998;49.906;10.908;2023-02-28T09:40:36;2.10;99.90
1994;DHT22;998;49.906;10.908;2023-02-28T09:43:04;2.10;99.90
1994;DHT22;998;49.906;10.908;2023-02-28T09:45:34;2.10;99.90
1994;DHT22;998;49.906;10.908;2023-02-28T09:48:06;2.00;99.90
1994;DHT22;998;49.906;10.908;2023-02-28T09:50:38;2.00;99.90
1994;DHT22;998;49.906;10.908;2023-02-28T09:53:13;2.00;99.90
1994;DHT22;998;49.906;10.908;2023-02-28T09:55:45;2.10;99.90
1994;DHT22;998;49.906;10.908;2023-02-28T09:58:20;2.10;99.90
1994;DHT22;998;49.906;10.908;2023-02-28T10:00:56;2.10;99.90
1994;DHT22;998;49.906;10.908;2023-02-28T10:03:30;2.10;99.90
1994;DHT22;998;49.906;10.908;2023-02-28T10:06:07;2.20;99.90
1994;DHT22;998;49.906;10.908;2023-02-28T10:08:45;2.20;99.90
1994;DHT22;998;49.906;10.908;2023-02-28T10:11:16;2.20;99.90
1994;DHT22;998;49.906;10.908;2023-02-28T10:13:52;2.20;99.90
1994;DHT22;998;49.906;10.908;2023-02-28T10:16:24;2.30;99.90
1994;DHT22;998;49.906;10.908;2023-02-28T10:18:56;2.40;99.90
1994;DHT22;998;49.906;10.908;2023-02-28T10:21:28;2.30;99.90
1994;DHT22;998;49.906;10.908;2023-02-28T10:24:03;2.40;99.90
1994;DHT22;998;49.906;10.908;2023-02-28T10:26:32;2.30;99.90
1994;DHT22;998;49.906;10.908;2023-02-28T10:29:00;2.40;99.90
1994;DHT22;998;49.906;10.908;2023-02-28T10:31:28;2.40;99.90
1994;DHT22;998;49.906;10.908;2023-02-28T10:33:55;2.50;99.90
1994;DHT22;998;49.906;10.908;2023-02-28T10:36:24;2.60;99.90
1994;DHT22;998;49.906;10.908;2023-02-28T10:38:52;2.60;99.90
1994;DHT22;998;49.906;10.908;2023-02-28T10:41:28;2.70;99.90
1994;DHT22;998;49.906;10.908;2023-02-28T10:44:14;2.70;99.90
1994;DHT22;998;49.906;10.908;2023-02-28T10:46:42;2.70;99.90
1994;DHT22;998;49.906;10.908;2023-02-28T10:49:15;2.80;99.90
1994;DHT22;998;49.906;10.908;2023-02-28T10:51:45;2.80;99.90
1994;DHT22;998;49.906;10.908;2023-02-28T10:54:19;2.70;99.90
1994;DHT22;998;49.906;10.908;2023-02-28T10:57:06;2.70;99.90
1994;DHT22;998;49.906;10.908;2023-02-28T10:59:35;2.80;99.90
1994;DHT22;998;49.906;10.908;2023-02-28T11:02:30;2.90;99.90
1994;DHT22;998;49.906;10.908;2023-02-28T11:04:57;2.90;99.90
1994;DHT22;998;49.906;10.908;2023-02-28T11:07:27;3.00;99.90
1994;DHT22;998;49.906;10.908;2023-02-28T11:09:56;3.90;99.90
1994;DHT22;998;49.906;10.908;2023-02-28T11:12:26;4.50;99.90
1994;DHT22;998;49.906;10.908;2023-02-28T11:14:57;4.90;99.90
1994;DHT22;998;49.906;10.908;2023-02-28T11:17:26;5.00;99.90
1994;DHT22;998;49.906;10.908;2023-02-28T11:19:57;4.50;99.00
1994;DHT22;998;49.906;10.908;2023-02-28T11:22:28;4.30;99.40
1994;DHT22;998;49.906;10.908;2023-02-28T11:24:59;4.20;99.90
1994;DHT22;998;49.906;10.908;2023-02-28T11:27:49;4.20;99.90
1994;DHT22;998;49.906;10.908;2023-02-28T11:30:25;5.20;99.90
1994;DHT22;998;49.906;10.908;2023-02-28T11:32:53;6.70;99.90
1994;DHT22;998;49.906;10.908;2023-02-28T11:35:24;8.20;96.20
1994;DHT22;998;49.906;10.908;2023-02-28T11:37:54;8.80;90.90
1994;DHT22;998;49.906;10.908;2023-02-28T11:40:27;9.40;89.90
1994;DHT22;998;49.906;10.908;2023-02-28T11:43:04;9.70;86.70
1994;DHT22;998;49.906;10.908;2023-02-28T11:45:47;10.40;81.10
1994;DHT22;998;49.906;10.908;2023-02-28T11:48:20;10.40;78.60
1994;DHT22;998;49.906;10.908;2023-02-28T11:50:59;10.20;75.20
1994;DHT22;998;49.906;10.908;2023-02-28T11:53:47;10.60;76.90
1994;DHT22;998;49.906;10.908;2023-02-28T11:56:23;10.90;72.10
1994;DHT22;998;49.906;10.908;2023-02-28T11:58:59;11.20;71.10
1994;DHT22;998;49.906;10.908;2023-02-28T12:01:38;11.10;72.50
1994;DHT22;998;49.906;10.908;2023-02-28T12:04:17;9.70;73.90
1994;DHT22;998;49.906;10.908;2023-02-28T12:06:55;10.00;76.80
1994;DHT22;998;49.906;10.908;2023-02-28T12:09:47;10.70;75.20
1994;DHT22;998;49.906;10.908;2023-02-28T12:12:29;11.20;70.00
1994;DHT22;998;49.906;10.908;2023-02-28T12:15:16;11.40;69.30
1994;DHT22;998;49.906;10.908;2023-02-28T12:18:17;10.80;67.30
1994;DHT22;998;49.906;10.908;2023-02-28T12:20:51;9.80;68.00
1994;DHT22;998;49.906;10.908;2023-02-28T12:23:51;9.90;73.10
1994;DHT22;998;49.906;10.908;2023-02-28T12:26:32;10.70;70.90
1994;DHT22;998;49.906;10.908;2023-02-28T12:29:04;10.90;67.90
1994;DHT22;998;49.906;10.908;2023-02-28T12:31:36;11.20;71.50
1994;DHT22;998;49.906;10.908;2023-02-28T12:34:08;11.40;68.90
1994;DHT22;998;49.906;10.908;2023-02-28T12:36:37;11.60;66.70
1994;DHT22;998;49.906;10.908;2023-02-28T12:39:09;10.90;64.40
1994;DHT22;998;49.906;10.908;2023-02-28T12:41:42;10.60;66.80
1994;DHT22;998;49.906;10.908;2023-02-28T12:44:14;10.90;65.50
1994;DHT22;998;49.906;10.908;2023-02-28T12:46:45;11.30;67.90
1994;DHT22;998;49.906;10.908;2023-02-28T12:49:17;11.50;65.10
1994;DHT22;998;49.906;10.908;2023-02-28T12:51:46;11.70;65.60
1994;DHT22;998;49.906;10.908;2023-02-28T12:54:19;12.00;64.30
1994;DHT22;998;49.906;10.908;2023-02-28T12:56:54;12.10;62.30
1994;DHT22;998;49.906;10.908;2023-02-28T12:59:27;12.10;61.80
1994;DHT22;998;49.906;10.908;2023-02-28T13:05:07;11.90;64.10
1994;DHT22;998;49.906;10.908;2023-02-28T13:08:17;11.70;64.50
1994;DHT22;998;49.906;10.908;2023-02-28T13:10:49;12.00;61.80
1994;DHT22;998;49.906;10.908;2023-02-28T13:13:24;11.90;63.20
1994;DHT22;998;49.906;10.908;2023-02-28T13:16:00;12.10;63.70
1994;DHT22;998;49.906;10.908;2023-02-28T13:18:30;12.00;61.20
1994;DHT22;998;49.906;10.908;2023-02-28T13:20:58;11.80;64.30
1994;DHT22;998;49.906;10.908;2023-02-28T13:23:56;11.80;62.00
1994;DHT22;998;49.906;10.908;2023-02-28T13:29:31;11.80;61.80
1994;DHT22;998;49.906;10.908;2023-02-28T13:32:19;11.70;60.00
1994;DHT22;998;49.906;10.908;2023-02-28T13:38:32;11.30;63.40
1994;DHT22;998;49.906;10.908;2023-02-28T13:44:02;11.70;62.90
1994;DHT22;998;49.906;10.908;2023-02-28T13:46:32;11.80;62.80
1994;DHT22;998;49.906;10.908;2023-02-28T13:49:18;11.70;63.20
1994;DHT22;998;49.906;10.908;2023-02-28T13:51:46;11.70;63.20
1994;DHT22;998;49.906;10.908;2023-02-28T13:54:24;11.50;63.00
1994;DHT22;998;49.906;10.908;2023-02-28T13:57:05;11.50;61.70
1994;DHT22;998;49.906;10.908;2023-02-28T13:59:42;11.40;64.00
1994;DHT22;998;49.906;10.908;2023-02-28T14:02:31;11.20;62.30
1994;DHT22;998;49.906;10.908;2023-02-28T14:05:05;11.20;62.90
1994;DHT22;998;49.906;10.908;2023-02-28T14:07:38;11.30;65.70
1994;DHT22;998;49.906;10.908;2023-02-28T14:10:15;11.30;61.30
1994;DHT22;998;49.906;10.908;2023-02-28T14:13:11;11.30;62.40
1994;DHT22;998;49.906;10.908;2023-02-28T14:15:47;11.20;62.70
1994;DHT22;998;49.906;10.908;2023-02-28T14:18:25;11.20;63.30
1994;DHT22;998;49.906;10.908;2023-02-28T14:20:58;11.10;64.10
1994;DHT22;998;49.906;10.908;2023-02-28T14:23:39;11.20;63.20
1994;DHT22;998;49.906;10.908;2023-02-28T14:26:16;11.10;64.30
1994;DHT22;998;49.906;10.908;2023-02-28T14:29:00;11.10;62.50
1994;DHT22;998;49.906;10.908;2023-02-28T14:31:34;11.10;63.70
1994;DHT22;998;49.906;10.908;2023-02-28T14:34:17;11.30;63.70
1994;DHT22;998;49.906;10.908;2023-02-28T14:36:50;11.30;61.20
1994;DHT22;998;49.906;10.908;2023-02-28T14:39:21;11.00;63.40
1994;DHT22;998;49.906;10.908;2023-02-28T14:41:48;10.90;62.70
1994;DHT22;998;49.906;10.908;2023-02-28T14:44:17;10.80;63.90
1994;DHT22;998;49.906;10.908;2023-02-28T14:46:46;10.90;63.00
1994;DHT22;998;49.906;10.908;2023-02-28T14:49:24;11.00;63.30
1994;DHT22;998;49.906;10.908;2023-02-28T14:52:03;11.00;64.60
1994;DHT22;998;49.906;10.908;2023-02-28T14:54:32;11.00;63.70
1994;DHT22;998;49.906;10.908;2023-02-28T14:57:00;11.00;63.70
1994;DHT22;998;49.906;10.908;2023-02-28T14:59:29;10.80;63.50
1994;DHT22;998;49.906;10.908;2023-02-28T15:02:18;10.90;64.00
1994;DHT22;998;49.906;10.908;2023-02-28T15:04:54;10.80;64.80
1994;DHT22;998;49.906;10.908;2023-02-28T15:07:22;10.80;63.90
1994;DHT22;998;49.906;10.908;2023-02-28T15:10:09;10.50;61.70
1994;DHT22;998;49.906;10.908;2023-02-28T15:12:37;10.50;64.50
1994;DHT22;998;49.906;10.908;2023-02-28T15:15:13;10.50;64.10
1994;DHT22;998;49.906;10.908;2023-02-28T15:17:42;10.40;62.20
1994;DHT22;998;49.906;10.908;2023-02-28T15:20:13;10.30;66.00
1994;DHT22;998;49.906;10.908;2023-02-28T15:22:42;10.20;63.50
1994;DHT22;998;49.906;10.908;2023-02-28T15:25:14;10.20;64.30
1994;DHT22;998;49.906;10.908;2023-02-28T15:27:45;10.20;64.40
1994;DHT22;998;49.906;10.908;2023-02-28T15:30:17;10.20;64.20
1994;DHT22;998;49.906;10.908;2023-02-28T15:32:44;10.20;62.90
1994;DHT22;998;49.906;10.908;2023-02-28T15:35:26;10.10;65.10
1994;DHT22;998;49.906;10.908;2023-02-28T15:37:58;10.10;64.60
1994;DHT22;998;49.906;10.908;2023-02-28T15:40:29;9.90;65.20
1994;DHT22;998;49.906;10.908;2023-02-28T15:43:04;10.00;64.80
1994;DHT22;998;49.906;10.908;2023-02-28T15:45:40;9.90;63.90
1994;DHT22;998;49.906;10.908;2023-02-28T15:48:19;9.80;65.40
1994;DHT22;998;49.906;10.908;2023-02-28T15:50:52;9.60;65.70
1994;DHT22;998;49.906;10.908;2023-02-28T15:53:23;9.60;66.20
1994;DHT22;998;49.906;10.908;2023-02-28T15:55:58;9.60;67.60
1994;DHT22;998;49.906;10.908;2023-02-28T15:58:26;9.50;66.00
1994;DHT22;998;49.906;10.908;2023-02-28T16:01:16;9.50;67.30
1994;DHT22;998;49.906;10.908;2023-02-28T16:03:46;9.40;65.60
1994;DHT22;998;49.906;10.908;2023-02-28T16:06:31;9.30;66.30
1994;DHT22;998;49.906;10.908;2023-02-28T16:08:58;9.20;67.00
1994;DHT22;998;49.906;10.908;2023-02-28T16:11:26;9.10;66.00
1994;DHT22;998;49.906;10.908;2023-02-28T16:13:53;9.00;65.70
1994;DHT22;998;49.906;10.908;2023-02-28T16:16:24;8.90;66.40
1994;DHT22;998;49.906;10.908;2023-02-28T16:18:52;8.80;67.10
1994;DHT22;998;49.906;10.908;2023-02-28T16:21:19;8.70;68.70
1994;DHT22;998;49.906;10.908;2023-02-28T16:23:48;8.50;69.80
1994;DHT22;998;49.906;10.908;2023-02-28T16:26:20;8.40;70.50
1994;DHT22;998;49.906;10.908;2023-02-28T16:28:48;8.40;69.50
1994;DHT22;998;49.906;10.908;2023-02-28T16:31:16;8.20;67.90
1994;DHT22;998;49.906;10.908;2023-02-28T16:33:44;8.00;68.30
1994;DHT22;998;49.906;10.908;2023-02-28T16:36:16;7.80;70.10
1994;DHT22;998;49.906;10.908;2023-02-28T16:38:43;7.70;69.60
1994;DHT22;998;49.906;10.908;2023-02-28T16:41:16;7.60;71.10
1994;DHT22;998;49.906;10.908;2023-02-28T16:43:46;7.50;71.00
1994;DHT22;998;49.906;10.908;2023-02-28T16:46:15;7.20;69.40
1994;DHT22;998;49.906;10.908;2023-02-28T16:48:43;7.20;72.50
1994;DHT22;998;49.906;10.908;2023-02-28T16:51:14;7.00;71.20
1994;DHT22;998;49.906;10.908;2023-02-28T16:53:42;7.10;72.90
1994;DHT22;998;49.906;10.908;2023-02-28T16:56:18;7.10;74.30
1994;DHT22;998;49.906;10.908;2023-02-28T16:58:47;7.00;72.00